KBWG/BWG METAR and TAF weather

Enter ICAO airport designator
Station Type Date Time Source
KBWG METAR 2022/01/19 16:53 UTC NOAA

KBWG 191653Z AUTO 20008KT 10SM OVC022 09/07 A3006 RMK AO2 RAE48 SLP181 P0001 T00890067


Station Type Date Time Source
KBWG Decoded METAR 2022/01/19 16:53 UTC NOAA

BOWLING GREEN-WARREN CO RGNL, KY, United States (KBWG) 36-58N 086-25W 161M
Jan 19, 2022 - 11:53 AM EST / 2022.01.19 1653 UTC
Wind: from the SSW (200 degrees) at 9 MPH (8 KT):0
Visibility: 10 mile(s):0
Sky conditions: overcast
Precipitation last hour: 0.01 inches
Temperature: 48.0 F (8.9 C)
Dew Point: 44.1 F (6.7 C)
Relative Humidity: 86%
Pressure (altimeter): 30.06 in. Hg (1017 hPa)
ob: KBWG 191653Z AUTO 20008KT 10SM OVC022 09/07 A3006 RMK AO2 RAE48 SLP181 P0001 T00890067
cycle: 17

Station Type Date Time Source
KBWG TAF 2022/01/19 18:24 UTC NOAA

TAF KBWG 191722Z 1918/2018 23006KT 4SM -RA BR OVC008
FM192200 34010G18KT 5SM -RA BR OVC007
FM200200 34012G19KT 4SM -SNPL BR OVC009
FM200400 35013G19KT 2SM -SN BR OVC015
FM200900 36009KT P6SM OVC022

Example: see airport list